sensor_id;sensor_type;location;lat;lon;timestamp;P1;durP1;ratioP1;P2;durP2;ratioP2
13866;SDS011;7003;46.982;15.248;2022-12-18T00:01:23;4.43;;;4.03;;
13866;SDS011;7003;46.982;15.248;2022-12-18T00:03:54;5.20;;;3.37;;
13866;SDS011;7003;46.982;15.248;2022-12-18T00:06:22;10.03;;;4.07;;
13866;SDS011;7003;46.982;15.248;2022-12-18T00:08:50;5.87;;;4.90;;
13866;SDS011;7003;46.982;15.248;2022-12-18T00:11:19;11.73;;;5.20;;
13866;SDS011;7003;46.982;15.248;2022-12-18T00:13:48;12.60;;;4.97;;
13866;SDS011;7003;46.982;15.248;2022-12-18T00:16:20;12.63;;;4.57;;
13866;SDS011;7003;46.982;15.248;2022-12-18T00:18:52;4.53;;;4.13;;
13866;SDS011;7003;46.982;15.248;2022-12-18T00:21:23;11.73;;;3.50;;
13866;SDS011;7003;46.982;15.248;2022-12-18T00:23:52;4.13;;;3.73;;
13866;SDS011;7003;46.982;15.248;2022-12-18T00:26:20;6.97;;;4.07;;
13866;SDS011;7003;46.982;15.248;2022-12-18T00:28:50;6.63;;;3.87;;
13866;SDS011;7003;46.982;15.248;2022-12-18T00:31:21;7.83;;;5.57;;
13866;SDS011;7003;46.982;15.248;2022-12-18T00:33:51;7.90;;;4.57;;
13866;SDS011;7003;46.982;15.248;2022-12-18T00:36:20;3.83;;;3.00;;
13866;SDS011;7003;46.982;15.248;2022-12-18T00:38:48;5.53;;;4.03;;
13866;SDS011;7003;46.982;15.248;2022-12-18T00:41:16;7.07;;;4.67;;
13866;SDS011;7003;46.982;15.248;2022-12-18T00:44:08;6.83;;;5.43;;
13866;SDS011;7003;46.982;15.248;2022-12-18T00:46:37;6.37;;;5.07;;
13866;SDS011;7003;46.982;15.248;2022-12-18T00:49:07;6.73;;;4.23;;
13866;SDS011;7003;46.982;15.248;2022-12-18T00:51:34;8.03;;;3.53;;
13866;SDS011;7003;46.982;15.248;2022-12-18T00:54:05;11.30;;;6.20;;
13866;SDS011;7003;46.982;15.248;2022-12-18T00:56:32;9.00;;;5.60;;
13866;SDS011;7003;46.982;15.248;2022-12-18T00:58:59;5.27;;;4.70;;
13866;SDS011;7003;46.982;15.248;2022-12-18T01:01:26;10.27;;;6.43;;
13866;SDS011;7003;46.982;15.248;2022-12-18T01:03:57;7.93;;;3.77;;
13866;SDS011;7003;46.982;15.248;2022-12-18T01:06:25;13.27;;;5.10;;
13866;SDS011;7003;46.982;15.248;2022-12-18T01:08:55;6.60;;;4.47;;
13866;SDS011;7003;46.982;15.248;2022-12-18T01:11:24;9.73;;;6.50;;
13866;SDS011;7003;46.982;15.248;2022-12-18T01:13:53;7.33;;;4.47;;
13866;SDS011;7003;46.982;15.248;2022-12-18T01:16:21;8.87;;;5.07;;
13866;SDS011;7003;46.982;15.248;2022-12-18T01:18:51;6.97;;;6.00;;
13866;SDS011;7003;46.982;15.248;2022-12-18T01:21:21;8.67;;;6.20;;
13866;SDS011;7003;46.982;15.248;2022-12-18T01:23:51;6.80;;;5.03;;
13866;SDS011;7003;46.982;15.248;2022-12-18T01:26:20;10.93;;;4.97;;
13866;SDS011;7003;46.982;15.248;2022-12-18T01:28:51;11.10;;;7.83;;
13866;SDS011;7003;46.982;15.248;2022-12-18T01:31:21;7.60;;;5.43;;
13866;SDS011;7003;46.982;15.248;2022-12-18T01:33:51;8.97;;;6.27;;
13866;SDS011;7003;46.982;15.248;2022-12-18T01:36:21;5.13;;;4.07;;
13866;SDS011;7003;46.982;15.248;2022-12-18T01:38:53;4.00;;;2.37;;
13866;SDS011;7003;46.982;15.248;2022-12-18T01:41:24;7.10;;;5.80;;
13866;SDS011;7003;46.982;15.248;2022-12-18T01:47:13;4.00;;;3.70;;
13866;SDS011;7003;46.982;15.248;2022-12-18T01:49:44;7.40;;;4.60;;
13866;SDS011;7003;46.982;15.248;2022-12-18T01:52:15;7.00;;;5.50;;
13866;SDS011;7003;46.982;15.248;2022-12-18T01:54:47;6.37;;;5.00;;
13866;SDS011;7003;46.982;15.248;2022-12-18T01:57:19;10.00;;;5.77;;
13866;SDS011;7003;46.982;15.248;2022-12-18T01:59:47;6.83;;;4.17;;
13866;SDS011;7003;46.982;15.248;2022-12-18T02:02:19;5.33;;;4.87;;
13866;SDS011;7003;46.982;15.248;2022-12-18T02:04:54;6.93;;;5.33;;
13866;SDS011;7003;46.982;15.248;2022-12-18T02:07:28;6.90;;;5.43;;
13866;SDS011;7003;46.982;15.248;2022-12-18T02:10:04;9.17;;;5.03;;
13866;SDS011;7003;46.982;15.248;2022-12-18T02:12:48;5.10;;;4.60;;
13866;SDS011;7003;46.982;15.248;2022-12-18T02:15:22;7.87;;;4.40;;
13866;SDS011;7003;46.982;15.248;2022-12-18T02:17:56;6.93;;;5.13;;
13866;SDS011;7003;46.982;15.248;2022-12-18T02:20:33;17.30;;;4.87;;
13866;SDS011;7003;46.982;15.248;2022-12-18T02:23:11;5.43;;;3.77;;
13866;SDS011;7003;46.982;15.248;2022-12-18T02:25:55;5.10;;;3.57;;
13866;SDS011;7003;46.982;15.248;2022-12-18T02:28:32;4.50;;;3.57;;
13866;SDS011;7003;46.982;15.248;2022-12-18T02:31:02;4.57;;;4.17;;
13866;SDS011;7003;46.982;15.248;2022-12-18T02:33:35;4.90;;;3.53;;
13866;SDS011;7003;46.982;15.248;2022-12-18T02:36:03;2.77;;;2.57;;
13866;SDS011;7003;46.982;15.248;2022-12-18T02:38:35;5.87;;;3.63;;
13866;SDS011;7003;46.982;15.248;2022-12-18T02:41:07;6.97;;;4.20;;
13866;SDS011;7003;46.982;15.248;2022-12-18T02:43:37;5.73;;;3.83;;
13866;SDS011;7003;46.982;15.248;2022-12-18T02:48:59;3.43;;;3.13;;
13866;SDS011;7003;46.982;15.248;2022-12-18T02:51:47;4.27;;;3.03;;
13866;SDS011;7003;46.982;15.248;2022-12-18T02:54:29;6.07;;;3.93;;
13866;SDS011;7003;46.982;15.248;2022-12-18T02:57:09;2.70;;;2.50;;
13866;SDS011;7003;46.982;15.248;2022-12-18T02:59:50;6.63;;;4.20;;
13866;SDS011;7003;46.982;15.248;2022-12-18T03:02:25;4.97;;;4.47;;
13866;SDS011;7003;46.982;15.248;2022-12-18T03:05:04;3.87;;;3.43;;
13866;SDS011;7003;46.982;15.248;2022-12-18T03:07:40;5.93;;;4.60;;
13866;SDS011;7003;46.982;15.248;2022-12-18T03:10:12;4.37;;;3.60;;
13866;SDS011;7003;46.982;15.248;2022-12-18T03:12:49;3.43;;;2.47;;
13866;SDS011;7003;46.982;15.248;2022-12-18T03:15:24;4.47;;;3.13;;
13866;SDS011;7003;46.982;15.248;2022-12-18T03:17:59;6.13;;;3.63;;
13866;SDS011;7003;46.982;15.248;2022-12-18T03:20:31;3.80;;;3.43;;
13866;SDS011;7003;46.982;15.248;2022-12-18T03:23:02;2.80;;;2.20;;
13866;SDS011;7003;46.982;15.248;2022-12-18T03:25:38;2.90;;;2.20;;
13866;SDS011;7003;46.982;15.248;2022-12-18T03:28:12;5.20;;;3.27;;
13866;SDS011;7003;46.982;15.248;2022-12-18T03:30:43;7.63;;;4.10;;
13866;SDS011;7003;46.982;15.248;2022-12-18T03:33:17;2.10;;;1.87;;
13866;SDS011;7003;46.982;15.248;2022-12-18T03:35:50;12.87;;;5.10;;
13866;SDS011;7003;46.982;15.248;2022-12-18T03:38:18;18.13;;;3.40;;
13866;SDS011;7003;46.982;15.248;2022-12-18T03:40:50;5.07;;;3.27;;
13866;SDS011;7003;46.982;15.248;2022-12-18T03:43:26;5.77;;;3.47;;
13866;SDS011;7003;46.982;15.248;2022-12-18T03:46:06;6.67;;;3.50;;
13866;SDS011;7003;46.982;15.248;2022-12-18T03:48:40;5.23;;;2.13;;
13866;SDS011;7003;46.982;15.248;2022-12-18T03:51:14;5.33;;;3.13;;
13866;SDS011;7003;46.982;15.248;2022-12-18T03:53:47;5.60;;;3.93;;
13866;SDS011;7003;46.982;15.248;2022-12-18T03:56:20;4.17;;;3.77;;
13866;SDS011;7003;46.982;15.248;2022-12-18T03:58:53;7.03;;;3.83;;
13866;SDS011;7003;46.982;15.248;2022-12-18T04:01:22;6.73;;;4.60;;
13866;SDS011;7003;46.982;15.248;2022-12-18T04:03:56;7.97;;;2.83;;
13866;SDS011;7003;46.982;15.248;2022-12-18T04:06:29;7.50;;;4.80;;
13866;SDS011;7003;46.982;15.248;2022-12-18T04:09:00;4.23;;;3.93;;
13866;SDS011;7003;46.982;15.248;2022-12-18T04:11:27;3.30;;;2.73;;
13866;SDS011;7003;46.982;15.248;2022-12-18T04:13:56;4.80;;;3.10;;
13866;SDS011;7003;46.982;15.248;2022-12-18T04:16:24;4.47;;;3.80;;
13866;SDS011;7003;46.982;15.248;2022-12-18T04:18:51;4.17;;;3.77;;
13866;SDS011;7003;46.982;15.248;2022-12-18T04:21:19;6.70;;;2.77;;
13866;SDS011;7003;46.982;15.248;2022-12-18T04:23:48;6.33;;;4.10;;
13866;SDS011;7003;46.982;15.248;2022-12-18T04:26:15;3.93;;;3.30;;
13866;SDS011;7003;46.982;15.248;2022-12-18T04:28:42;6.40;;;4.17;;
13866;SDS011;7003;46.982;15.248;2022-12-18T04:31:13;5.83;;;4.27;;
13866;SDS011;7003;46.982;15.248;2022-12-18T04:33:40;3.00;;;2.33;;
13866;SDS011;7003;46.982;15.248;2022-12-18T04:36:07;5.67;;;4.17;;
13866;SDS011;7003;46.982;15.248;2022-12-18T04:38:34;3.20;;;2.90;;
13866;SDS011;7003;46.982;15.248;2022-12-18T04:41:02;4.40;;;2.00;;
13866;SDS011;7003;46.982;15.248;2022-12-18T04:43:31;3.27;;;1.70;;
13866;SDS011;7003;46.982;15.248;2022-12-18T04:46:03;2.37;;;2.17;;
13866;SDS011;7003;46.982;15.248;2022-12-18T04:48:32;8.10;;;3.10;;
13866;SDS011;7003;46.982;15.248;2022-12-18T04:51:02;6.57;;;3.43;;
13866;SDS011;7003;46.982;15.248;2022-12-18T04:53:30;5.70;;;3.17;;
13866;SDS011;7003;46.982;15.248;2022-12-18T04:56:03;2.97;;;2.33;;
13866;SDS011;7003;46.982;15.248;2022-12-18T04:58:34;5.47;;;2.97;;
13866;SDS011;7003;46.982;15.248;2022-12-18T05:01:04;7.17;;;4.97;;
13866;SDS011;7003;46.982;15.248;2022-12-18T05:03:36;6.17;;;5.57;;
13866;SDS011;7003;46.982;15.248;2022-12-18T05:06:06;3.97;;;3.53;;
13866;SDS011;7003;46.982;15.248;2022-12-18T05:08:36;5.33;;;3.23;;
13866;SDS011;7003;46.982;15.248;2022-12-18T05:11:06;7.10;;;6.50;;
13866;SDS011;7003;46.982;15.248;2022-12-18T05:13:35;5.20;;;3.23;;
13866;SDS011;7003;46.982;15.248;2022-12-18T05:16:03;4.40;;;3.73;;
13866;SDS011;7003;46.982;15.248;2022-12-18T05:18:31;5.43;;;2.50;;
13866;SDS011;7003;46.982;15.248;2022-12-18T05:21:02;3.83;;;3.47;;
13866;SDS011;7003;46.982;15.248;2022-12-18T05:23:29;3.50;;;2.53;;
13866;SDS011;7003;46.982;15.248;2022-12-18T05:25:57;8.10;;;3.87;;
13866;SDS011;7003;46.982;15.248;2022-12-18T05:28:26;3.93;;;3.63;;
13866;SDS011;7003;46.982;15.248;2022-12-18T05:30:54;3.40;;;3.03;;
13866;SDS011;7003;46.982;15.248;2022-12-18T05:33:24;2.67;;;2.47;;
13866;SDS011;7003;46.982;15.248;2022-12-18T05:35:53;7.83;;;4.00;;
13866;SDS011;7003;46.982;15.248;2022-12-18T05:38:23;1.90;;;1.57;;
13866;SDS011;7003;46.982;15.248;2022-12-18T05:40:53;3.13;;;2.83;;
13866;SDS011;7003;46.982;15.248;2022-12-18T05:43:21;2.53;;;2.23;;
13866;SDS011;7003;46.982;15.248;2022-12-18T05:45:52;4.07;;;2.90;;
13866;SDS011;7003;46.982;15.248;2022-12-18T05:48:22;8.93;;;3.13;;
13866;SDS011;7003;46.982;15.248;2022-12-18T05:50:49;3.40;;;3.07;;
13866;SDS011;7003;46.982;15.248;2022-12-18T05:53:17;4.47;;;2.67;;
13866;SDS011;7003;46.982;15.248;2022-12-18T05:55:48;4.83;;;3.40;;
13866;SDS011;7003;46.982;15.248;2022-12-18T05:58:15;4.07;;;3.03;;
13866;SDS011;7003;46.982;15.248;2022-12-18T06:00:43;5.23;;;2.80;;
13866;SDS011;7003;46.982;15.248;2022-12-18T06:03:14;4.57;;;2.37;;
13866;SDS011;7003;46.982;15.248;2022-12-18T06:05:44;2.50;;;2.30;;
13866;SDS011;7003;46.982;15.248;2022-12-18T06:08:12;1.70;;;1.60;;
13866;SDS011;7003;46.982;15.248;2022-12-18T06:10:40;4.10;;;2.97;;
13866;SDS011;7003;46.982;15.248;2022-12-18T06:13:09;3.60;;;3.23;;
13866;SDS011;7003;46.982;15.248;2022-12-18T06:15:37;4.83;;;4.43;;
13866;SDS011;7003;46.982;15.248;2022-12-18T06:18:06;3.43;;;3.23;;
13866;SDS011;7003;46.982;15.248;2022-12-18T06:20:34;2.93;;;2.23;;
13866;SDS011;7003;46.982;15.248;2022-12-18T06:23:05;3.97;;;3.63;;
13866;SDS011;7003;46.982;15.248;2022-12-18T06:25:37;5.13;;;4.60;;
13866;SDS011;7003;46.982;15.248;2022-12-18T06:28:10;7.23;;;5.20;;
13866;SDS011;7003;46.982;15.248;2022-12-18T06:30:43;6.53;;;3.30;;
13866;SDS011;7003;46.982;15.248;2022-12-18T06:33:13;2.30;;;2.00;;
13866;SDS011;7003;46.982;15.248;2022-12-18T06:35:43;4.63;;;3.37;;
13866;SDS011;7003;46.982;15.248;2022-12-18T06:38:15;5.43;;;4.50;;
13866;SDS011;7003;46.982;15.248;2022-12-18T06:40:44;2.60;;;1.80;;
13866;SDS011;7003;46.982;15.248;2022-12-18T06:43:14;2.37;;;2.17;;
13866;SDS011;7003;46.982;15.248;2022-12-18T06:45:41;2.93;;;2.73;;
13866;SDS011;7003;46.982;15.248;2022-12-18T06:48:09;4.37;;;3.97;;
13866;SDS011;7003;46.982;15.248;2022-12-18T06:50:37;5.03;;;3.83;;
13866;SDS011;7003;46.982;15.248;2022-12-18T06:53:12;19.53;;;13.90;;
13866;SDS011;7003;46.982;15.248;2022-12-18T06:55:40;14.90;;;6.47;;
13866;SDS011;7003;46.982;15.248;2022-12-18T06:58:07;11.93;;;6.90;;
13866;SDS011;7003;46.982;15.248;2022-12-18T07:00:39;16.73;;;6.17;;
13866;SDS011;7003;46.982;15.248;2022-12-18T07:03:07;19.80;;;6.90;;
13866;SDS011;7003;46.982;15.248;2022-12-18T07:05:39;16.00;;;5.37;;
13866;SDS011;7003;46.982;15.248;2022-12-18T07:08:07;3.50;;;3.20;;
13866;SDS011;7003;46.982;15.248;2022-12-18T07:10:40;9.90;;;5.30;;
13866;SDS011;7003;46.982;15.248;2022-12-18T07:13:11;15.80;;;4.93;;
13866;SDS011;7003;46.982;15.248;2022-12-18T07:15:40;9.10;;;3.93;;
13866;SDS011;7003;46.982;15.248;2022-12-18T07:18:10;5.37;;;4.83;;
13866;SDS011;7003;46.982;15.248;2022-12-18T07:20:38;5.80;;;5.20;;
13866;SDS011;7003;46.982;15.248;2022-12-18T07:23:06;8.73;;;4.13;;
13866;SDS011;7003;46.982;15.248;2022-12-18T07:25:33;12.97;;;5.13;;
13866;SDS011;7003;46.982;15.248;2022-12-18T07:28:01;9.87;;;5.23;;
13866;SDS011;7003;46.982;15.248;2022-12-18T07:30:30;11.57;;;5.70;;
13866;SDS011;7003;46.982;15.248;2022-12-18T07:33:00;4.80;;;4.20;;
13866;SDS011;7003;46.982;15.248;2022-12-18T07:35:28;5.57;;;4.43;;
13866;SDS011;7003;46.982;15.248;2022-12-18T07:37:56;2.90;;;2.23;;
13866;SDS011;7003;46.982;15.248;2022-12-18T07:40:26;7.27;;;4.83;;
13866;SDS011;7003;46.982;15.248;2022-12-18T07:42:56;13.37;;;9.60;;
13866;SDS011;7003;46.982;15.248;2022-12-18T07:45:24;11.47;;;8.47;;
13866;SDS011;7003;46.982;15.248;2022-12-18T07:47:52;29.70;;;10.10;;
13866;SDS011;7003;46.982;15.248;2022-12-18T07:50:24;5.50;;;4.63;;
13866;SDS011;7003;46.982;15.248;2022-12-18T07:52:52;5.80;;;4.63;;
13866;SDS011;7003;46.982;15.248;2022-12-18T07:55:20;4.67;;;2.93;;
13866;SDS011;7003;46.982;15.248;2022-12-18T07:57:50;7.00;;;3.63;;
13866;SDS011;7003;46.982;15.248;2022-12-18T08:00:22;14.27;;;6.63;;
13866;SDS011;7003;46.982;15.248;2022-12-18T08:02:50;4.93;;;4.47;;
13866;SDS011;7003;46.982;15.248;2022-12-18T08:05:18;4.17;;;3.27;;
13866;SDS011;7003;46.982;15.248;2022-12-18T08:07:52;4.27;;;3.83;;
13866;SDS011;7003;46.982;15.248;2022-12-18T08:10:20;3.80;;;2.33;;
13866;SDS011;7003;46.982;15.248;2022-12-18T08:12:49;3.63;;;3.23;;
13866;SDS011;7003;46.982;15.248;2022-12-18T08:15:20;4.53;;;3.77;;
13866;SDS011;7003;46.982;15.248;2022-12-18T08:17:49;3.17;;;2.63;;
13866;SDS011;7003;46.982;15.248;2022-12-18T08:20:18;5.27;;;2.73;;
13866;SDS011;7003;46.982;15.248;2022-12-18T08:22:47;3.13;;;2.83;;
13866;SDS011;7003;46.982;15.248;2022-12-18T08:25:17;7.07;;;6.23;;
13866;SDS011;7003;46.982;15.248;2022-12-18T08:27:45;9.07;;;4.97;;
13866;SDS011;7003;46.982;15.248;2022-12-18T08:30:16;5.83;;;4.60;;
13866;SDS011;7003;46.982;15.248;2022-12-18T08:32:51;4.17;;;2.90;;
13866;SDS011;7003;46.982;15.248;2022-12-18T08:35:20;5.77;;;3.57;;
13866;SDS011;7003;46.982;15.248;2022-12-18T08:37:50;6.20;;;4.63;;
13866;SDS011;7003;46.982;15.248;2022-12-18T08:40:20;4.63;;;4.27;;
13866;SDS011;7003;46.982;15.248;2022-12-18T08:42:49;4.73;;;3.87;;
13866;SDS011;7003;46.982;15.248;2022-12-18T08:45:37;3.13;;;2.43;;
13866;SDS011;7003;46.982;15.248;2022-12-18T08:48:06;6.37;;;4.93;;
13866;SDS011;7003;46.982;15.248;2022-12-18T08:50:36;4.93;;;4.17;;
13866;SDS011;7003;46.982;15.248;2022-12-18T08:53:04;6.70;;;4.33;;
13866;SDS011;7003;46.982;15.248;2022-12-18T08:55:36;6.97;;;4.63;;
13866;SDS011;7003;46.982;15.248;2022-12-18T08:58:05;3.67;;;3.37;;
13866;SDS011;7003;46.982;15.248;2022-12-18T09:00:33;8.53;;;4.37;;
13866;SDS011;7003;46.982;15.248;2022-12-18T09:03:01;4.93;;;3.63;;
13866;SDS011;7003;46.982;15.248;2022-12-18T09:05:28;5.37;;;3.63;;
13866;SDS011;7003;46.982;15.248;2022-12-18T09:08:01;8.60;;;4.50;;
13866;SDS011;7003;46.982;15.248;2022-12-18T09:10:28;9.60;;;6.63;;
13866;SDS011;7003;46.982;15.248;2022-12-18T09:12:59;6.73;;;4.87;;
13866;SDS011;7003;46.982;15.248;2022-12-18T09:15:27;10.73;;;6.17;;
13866;SDS011;7003;46.982;15.248;2022-12-18T09:17:55;9.70;;;5.33;;
13866;SDS011;7003;46.982;15.248;2022-12-18T09:20:23;6.93;;;5.80;;
13866;SDS011;7003;46.982;15.248;2022-12-18T09:22:51;6.27;;;4.90;;
13866;SDS011;7003;46.982;15.248;2022-12-18T09:25:19;6.90;;;5.00;;
13866;SDS011;7003;46.982;15.248;2022-12-18T09:27:51;6.87;;;5.73;;
13866;SDS011;7003;46.982;15.248;2022-12-18T09:30:25;5.20;;;4.43;;
13866;SDS011;7003;46.982;15.248;2022-12-18T09:32:54;5.83;;;4.30;;
13866;SDS011;7003;46.982;15.248;2022-12-18T09:35:22;7.57;;;6.13;;
13866;SDS011;7003;46.982;15.248;2022-12-18T09:37:50;4.27;;;3.80;;
13866;SDS011;7003;46.982;15.248;2022-12-18T09:40:22;7.20;;;3.77;;
13866;SDS011;7003;46.982;15.248;2022-12-18T09:42:55;5.17;;;3.83;;
13866;SDS011;7003;46.982;15.248;2022-12-18T09:45:31;7.53;;;5.60;;
13866;SDS011;7003;46.982;15.248;2022-12-18T09:48:09;6.57;;;5.37;;
13866;SDS011;7003;46.982;15.248;2022-12-18T09:50:43;5.83;;;4.67;;
13866;SDS011;7003;46.982;15.248;2022-12-18T09:53:13;6.77;;;5.17;;
13866;SDS011;7003;46.982;15.248;2022-12-18T09:55:47;5.90;;;4.77;;
13866;SDS011;7003;46.982;15.248;2022-12-18T09:58:18;7.73;;;5.20;;
13866;SDS011;7003;46.982;15.248;2022-12-18T10:00:56;8.27;;;4.80;;
13866;SDS011;7003;46.982;15.248;2022-12-18T10:03:24;10.03;;;6.53;;
13866;SDS011;7003;46.982;15.248;2022-12-18T10:05:57;8.57;;;4.53;;
13866;SDS011;7003;46.982;15.248;2022-12-18T10:08:33;6.73;;;4.87;;
13866;SDS011;7003;46.982;15.248;2022-12-18T10:14:08;7.47;;;5.43;;
13866;SDS011;7003;46.982;15.248;2022-12-18T10:16:50;7.47;;;4.97;;
13866;SDS011;7003;46.982;15.248;2022-12-18T10:19:43;8.40;;;5.87;;
13866;SDS011;7003;46.982;15.248;2022-12-18T10:22:20;6.27;;;5.03;;
13866;SDS011;7003;46.982;15.248;2022-12-18T10:24:55;7.43;;;5.30;;
13866;SDS011;7003;46.982;15.248;2022-12-18T10:27:32;7.73;;;4.57;;
13866;SDS011;7003;46.982;15.248;2022-12-18T10:30:04;6.43;;;5.37;;
13866;SDS011;7003;46.982;15.248;2022-12-18T10:32:41;5.97;;;4.23;;
13866;SDS011;7003;46.982;15.248;2022-12-18T10:35:12;11.50;;;8.27;;
13866;SDS011;7003;46.982;15.248;2022-12-18T10:38:19;7.20;;;6.00;;
13866;SDS011;7003;46.982;15.248;2022-12-18T10:40:51;9.60;;;7.33;;
13866;SDS011;7003;46.982;15.248;2022-12-18T10:43:22;6.53;;;5.50;;
13866;SDS011;7003;46.982;15.248;2022-12-18T10:45:59;8.40;;;5.93;;
13866;SDS011;7003;46.982;15.248;2022-12-18T10:48:31;12.87;;;5.90;;
13866;SDS011;7003;46.982;15.248;2022-12-18T10:51:00;11.53;;;6.40;;
13866;SDS011;7003;46.982;15.248;2022-12-18T10:53:32;12.60;;;6.63;;
13866;SDS011;7003;46.982;15.248;2022-12-18T10:56:07;9.70;;;6.53;;
13866;SDS011;7003;46.982;15.248;2022-12-18T10:58:36;11.83;;;8.10;;
13866;SDS011;7003;46.982;15.248;2022-12-18T11:01:09;10.07;;;6.90;;
13866;SDS011;7003;46.982;15.248;2022-12-18T11:03:43;10.87;;;7.53;;
13866;SDS011;7003;46.982;15.248;2022-12-18T11:06:15;8.83;;;6.57;;
13866;SDS011;7003;46.982;15.248;2022-12-18T11:08:56;10.77;;;7.07;;
13866;SDS011;7003;46.982;15.248;2022-12-18T11:11:25;11.57;;;8.20;;
13866;SDS011;7003;46.982;15.248;2022-12-18T11:13:58;15.53;;;8.37;;
13866;SDS011;7003;46.982;15.248;2022-12-18T11:16:29;15.10;;;8.93;;
13866;SDS011;7003;46.982;15.248;2022-12-18T11:19:12;10.80;;;7.00;;
13866;SDS011;7003;46.982;15.248;2022-12-18T11:21:50;11.63;;;8.53;;
13866;SDS011;7003;46.982;15.248;2022-12-18T11:24:19;17.20;;;8.50;;
13866;SDS011;7003;46.982;15.248;2022-12-18T11:26:50;11.47;;;7.73;;
13866;SDS011;7003;46.982;15.248;2022-12-18T11:29:22;11.33;;;7.53;;
13866;SDS011;7003;46.982;15.248;2022-12-18T11:32:10;9.37;;;6.87;;
13866;SDS011;7003;46.982;15.248;2022-12-18T11:34:57;20.27;;;9.30;;
13866;SDS011;7003;46.982;15.248;2022-12-18T11:37:37;8.07;;;5.67;;
13866;SDS011;7003;46.982;15.248;2022-12-18T11:40:10;14.40;;;7.97;;
13866;SDS011;7003;46.982;15.248;2022-12-18T11:42:46;15.27;;;7.10;;
13866;SDS011;7003;46.982;15.248;2022-12-18T11:45:26;13.03;;;6.60;;
13866;SDS011;7003;46.982;15.248;2022-12-18T11:47:57;15.43;;;8.30;;
13866;SDS011;7003;46.982;15.248;2022-12-18T11:50:33;10.90;;;8.50;;
13866;SDS011;7003;46.982;15.248;2022-12-18T11:53:11;20.33;;;11.90;;
13866;SDS011;7003;46.982;15.248;2022-12-18T11:55:46;18.13;;;8.77;;
13866;SDS011;7003;46.982;15.248;2022-12-18T11:58:31;22.80;;;12.27;;
13866;SDS011;7003;46.982;15.248;2022-12-18T12:01:12;12.43;;;8.47;;
13866;SDS011;7003;46.982;15.248;2022-12-18T12:03:53;16.17;;;9.97;;
13866;SDS011;7003;46.982;15.248;2022-12-18T12:06:41;12.07;;;9.50;;
13866;SDS011;7003;46.982;15.248;2022-12-18T12:09:22;10.03;;;7.77;;
13866;SDS011;7003;46.982;15.248;2022-12-18T12:11:58;16.27;;;10.63;;
13866;SDS011;7003;46.982;15.248;2022-12-18T12:14:40;17.33;;;10.00;;
13866;SDS011;7003;46.982;15.248;2022-12-18T12:17:15;16.87;;;9.30;;
13866;SDS011;7003;46.982;15.248;2022-12-18T12:19:52;19.10;;;9.63;;
13866;SDS011;7003;46.982;15.248;2022-12-18T12:22:33;16.30;;;8.80;;
13866;SDS011;7003;46.982;15.248;2022-12-18T12:25:15;13.63;;;8.03;;
13866;SDS011;7003;46.982;15.248;2022-12-18T12:27:58;15.77;;;9.13;;
13866;SDS011;7003;46.982;15.248;2022-12-18T12:30:39;11.53;;;8.80;;
13866;SDS011;7003;46.982;15.248;2022-12-18T12:33:23;16.23;;;11.60;;
13866;SDS011;7003;46.982;15.248;2022-12-18T12:36:03;17.87;;;8.90;;
13866;SDS011;7003;46.982;15.248;2022-12-18T12:38:46;16.47;;;10.40;;
13866;SDS011;7003;46.982;15.248;2022-12-18T12:41:20;14.00;;;10.03;;
13866;SDS011;7003;46.982;15.248;2022-12-18T12:44:09;18.57;;;11.43;;
13866;SDS011;7003;46.982;15.248;2022-12-18T12:46:43;14.70;;;10.00;;
13866;SDS011;7003;46.982;15.248;2022-12-18T12:49:15;12.03;;;6.53;;
13866;SDS011;7003;46.982;15.248;2022-12-18T12:51:47;21.23;;;10.30;;
13866;SDS011;7003;46.982;15.248;2022-12-18T12:54:26;16.97;;;8.77;;
13866;SDS011;7003;46.982;15.248;2022-12-18T12:56:57;13.03;;;9.33;;
13866;SDS011;7003;46.982;15.248;2022-12-18T12:59:30;20.53;;;11.47;;
13866;SDS011;7003;46.982;15.248;2022-12-18T13:02:06;21.97;;;11.67;;
13866;SDS011;7003;46.982;15.248;2022-12-18T13:04:46;15.47;;;10.47;;
13866;SDS011;7003;46.982;15.248;2022-12-18T13:07:20;14.97;;;9.43;;
13866;SDS011;7003;46.982;15.248;2022-12-18T13:10:19;15.63;;;10.17;;
13866;SDS011;7003;46.982;15.248;2022-12-18T13:12:55;21.60;;;14.43;;
13866;SDS011;7003;46.982;15.248;2022-12-18T13:15:28;18.63;;;12.57;;
13866;SDS011;7003;46.982;15.248;2022-12-18T13:18:14;18.73;;;10.43;;
13866;SDS011;7003;46.982;15.248;2022-12-18T13:20:47;14.57;;;9.83;;
13866;SDS011;7003;46.982;15.248;2022-12-18T13:23:23;20.47;;;14.43;;
13866;SDS011;7003;46.982;15.248;2022-12-18T13:25:58;21.23;;;13.43;;
13866;SDS011;7003;46.982;15.248;2022-12-18T13:34:33;17.00;;;9.93;;
13866;SDS011;7003;46.982;15.248;2022-12-18T13:43:23;18.53;;;11.13;;
13866;SDS011;7003;46.982;15.248;2022-12-18T13:46:18;15.17;;;8.93;;
13866;SDS011;7003;46.982;15.248;2022-12-18T13:48:55;20.50;;;11.13;;
13866;SDS011;7003;46.982;15.248;2022-12-18T13:51:24;16.63;;;11.17;;
13866;SDS011;7003;46.982;15.248;2022-12-18T13:53:54;16.57;;;11.83;;
13866;SDS011;7003;46.982;15.248;2022-12-18T13:56:28;18.67;;;11.13;;
13866;SDS011;7003;46.982;15.248;2022-12-18T13:59:12;20.93;;;12.53;;
13866;SDS011;7003;46.982;15.248;2022-12-18T14:01:49;16.20;;;9.73;;
13866;SDS011;7003;46.982;15.248;2022-12-18T14:04:24;21.20;;;11.53;;
13866;SDS011;7003;46.982;15.248;2022-12-18T14:06:57;14.77;;;11.10;;
13866;SDS011;7003;46.982;15.248;2022-12-18T14:09:29;13.57;;;11.07;;
13866;SDS011;7003;46.982;15.248;2022-12-18T14:11:58;19.60;;;11.17;;
13866;SDS011;7003;46.982;15.248;2022-12-18T14:14:48;19.13;;;13.57;;
13866;SDS011;7003;46.982;15.248;2022-12-18T14:17:18;22.67;;;10.97;;
13866;SDS011;7003;46.982;15.248;2022-12-18T14:19:49;17.67;;;11.80;;
13866;SDS011;7003;46.982;15.248;2022-12-18T14:22:18;20.13;;;10.50;;
13866;SDS011;7003;46.982;15.248;2022-12-18T14:25:06;20.10;;;8.70;;
13866;SDS011;7003;46.982;15.248;2022-12-18T14:27:42;14.17;;;11.33;;
13866;SDS011;7003;46.982;15.248;2022-12-18T14:33:00;17.97;;;8.83;;
13866;SDS011;7003;46.982;15.248;2022-12-18T14:35:29;20.17;;;10.13;;
13866;SDS011;7003;46.982;15.248;2022-12-18T14:43:38;22.93;;;13.77;;
13866;SDS011;7003;46.982;15.248;2022-12-18T14:48:55;17.00;;;10.60;;
13866;SDS011;7003;46.982;15.248;2022-12-18T14:51:28;14.00;;;8.63;;
13866;SDS011;7003;46.982;15.248;2022-12-18T14:54:00;65.43;;;36.20;;
13866;SDS011;7003;46.982;15.248;2022-12-18T14:56:30;32.10;;;16.53;;
13866;SDS011;7003;46.982;15.248;2022-12-18T14:58:59;12.23;;;8.77;;
13866;SDS011;7003;46.982;15.248;2022-12-18T15:01:31;16.90;;;11.73;;
13866;SDS011;7003;46.982;15.248;2022-12-18T15:04:02;14.07;;;7.57;;
13866;SDS011;7003;46.982;15.248;2022-12-18T15:06:34;14.53;;;9.60;;
13866;SDS011;7003;46.982;15.248;2022-12-18T15:09:20;12.43;;;8.87;;
13866;SDS011;7003;46.982;15.248;2022-12-18T15:11:55;13.57;;;7.93;;
13866;SDS011;7003;46.982;15.248;2022-12-18T15:14:28;16.10;;;12.07;;
13866;SDS011;7003;46.982;15.248;2022-12-18T15:17:01;12.03;;;9.03;;
13866;SDS011;7003;46.982;15.248;2022-12-18T15:19:34;13.40;;;9.07;;
13866;SDS011;7003;46.982;15.248;2022-12-18T15:24:56;14.10;;;10.40;;
13866;SDS011;7003;46.982;15.248;2022-12-18T15:27:26;16.43;;;11.93;;
13866;SDS011;7003;46.982;15.248;2022-12-18T15:30:19;19.00;;;9.90;;
13866;SDS011;7003;46.982;15.248;2022-12-18T15:32:50;19.57;;;10.27;;
13866;SDS011;7003;46.982;15.248;2022-12-18T15:35:19;19.23;;;10.63;;
13866;SDS011;7003;46.982;15.248;2022-12-18T15:37:51;18.90;;;12.43;;
13866;SDS011;7003;46.982;15.248;2022-12-18T15:40:19;20.80;;;11.00;;
13866;SDS011;7003;46.982;15.248;2022-12-18T15:42:51;17.17;;;11.77;;
13866;SDS011;7003;46.982;15.248;2022-12-18T15:45:39;21.20;;;12.07;;
13866;SDS011;7003;46.982;15.248;2022-12-18T15:48:12;18.23;;;10.53;;